Aviation Digital Data Service (ADDS)

Output produced by METARs form (1955 UTC 17 December 2014)
found at http://www.aviationweather.gov/adds/metars/
 
KAOO 171853Z AUTO 27012KT 9SM BKN027 OVC033 02/M01 A2996 RMK AO2 SNE12B32E49 SLP157 P0000 T00221011
KAOO 171843Z AUTO 27013KT 4SM -SN FEW025 BKN030 OVC034 02/M01 A2996 RMK AO2 SNE12B32 P0000 T00171011
KAOO 171813Z AUTO 29011G19KT 9SM FEW010 BKN024 OVC029 02/M01 A2996 RMK AO2 SNE12 P0000 T00171006
KAOO 171806Z AUTO 27009KT 2SM -SN BR FEW009 BKN017 OVC030 01/00 A2997 RMK AO2 P0000 T00110000
KAOO 171758Z AUTO 27009KT 3/4SM -SN BR SCT009 OVC019 01/00 A2997 RMK AO2 P0000 T00060000
KAOO 171753Z AUTO 28010KT 1SM -SN BR FEW011 OVC019 01/M01 A2998 RMK AO2 UPB28E33SNB33 SLP162 P0000 60000 T00111006 10044 20011 50000
KAOO 171747Z AUTO 28012KT 1 3/4SM -SN BR OVC019 02/M01 A2997 RMK AO2 UPB28E33SNB33 P0000
KAOO 171653Z AUTO 28018G24KT 10SM OVC020 03/M01 A2998 RMK AO2 SLP161 T00281011
KAOO 171553Z AUTO 27013G20KT 10SM SCT021 OVC028 03/00 A2998 RMK AO2 SLP163 T00330000
KAOO 171453Z AUTO 26010KT 10SM OVC024 03/00 A2998 RMK AO2 SLP161 T00330000 51019
KAOO 171353Z AUTO 25012G19KT 10SM OVC021 03/01 A2997 RMK AO2 SLP158 T00330006
KAOO 171253Z AUTO 27009KT 10SM OVC022 04/01 A2994 RMK AO2 SLP149 T00390011
KAOO 171153Z AUTO 27011KT 10SM OVC022 04/02 A2992 RMK AO2 RAE00 SLP142 P0000 60000 70029 T00440017 10056 20044 53008
KAOO 171132Z AUTO 26014KT 10SM SCT012 BKN019 OVC025 04/03 A2992 RMK AO2 RAE00 P0000 T00440028
KAOO 171118Z AUTO 23006KT 10SM BKN014 OVC020 04/03 A2991 RMK AO2 RAE00 P0000 T00440033
KAOO 171053Z AUTO 27010KT 10SM -RA BKN019 OVC024 04/03 A2991 RMK AO2 RAB0958E08B21E32B50 SLP138 P0000 T00440028
KAOO 170953Z AUTO 25010KT 10SM BKN020 OVC025 05/03 A2989 RMK AO2 RAE0854B13E30 SLP132 P0000 T00500033
KAOO 170937Z AUTO 25009KT 10SM SCT015 OVC021 05/03 A2989 RMK AO2 RAE0854B13E30 P0000 T00500033
KAOO 170921Z AUTO 26011KT 10SM -RA OVC014 05/03 A2989 RMK AO2 RAE0854B13 P0000 T00500033
KAOO 170853Z AUTO 27012G21KT 10SM -RA OVC016 06/03 A2990 RMK AO2 RAB38 SLP133 P0000 60000 T00560033 51005
KAOO 170753Z AUTO 26009KT 10SM OVC017 06/03 A2989 RMK AO2 SLP131 T00560033
KAOO 170653Z AUTO 24007KT 10SM OVC018 05/04 A2989 RMK AO2 SLP130 T00500039
KAOO 170553Z AUTO 25008KT 10SM OVC019 06/03 A2988 RMK AO2 SLP127 60001 T00560033 10067 20039 53006
KAOO 170453Z AUTO 26016G25KT 10SM OVC023 06/03 A2987 RMK AO2 SLP124 T00610033 400671017
KAOO 170353Z AUTO 26013KT 10SM OVC019 07/04 A2987 RMK AO2 SLP123 T00670039
KAOO 170253Z AUTO 24005KT 3SM BR BKN017 OVC023 04/04 A2986 RMK AO2 RAE23 SLP123 P0000 60001 T00440039 51004
KAOO 170228Z AUTO 22006KT 4SM BR FEW005 BKN025 OVC032 04/04 A2985 RMK AO2 RAE23 P0000 T00390039
KAOO 170215Z AUTO 20003KT 2SM -RA BR SCT005 BKN016 OVC022 04/04 A2985 RMK AO2 P0000 T00390039
KAOO 170153Z AUTO 00000KT 1 3/4SM -RA BR OVC003 04/04 A2986 RMK AO2 RAB27 SLP121 P0000 T00390039
KAOO 170149Z AUTO 00000KT 1 3/4SM -RA BR BKN003 OVC020 04/04 A2986 RMK AO2 RAB27 P0000
KAOO 170140Z AUTO 00000KT 1 1/2SM -RA BR BKN002 OVC020 04/04 A2986 RMK AO2 RAB27 P0000 T00390039
KAOO 170119Z AUTO 27004KT 1 1/4SM BR SCT003 OVC025 04/04 A2985 RMK AO2 T00390039
KAOO 170109Z AUTO 25003KT 1 1/2SM BR OVC024 04/04 A2985 RMK AO2 T00390039
KAOO 170100Z AUTO 25003KT 2SM BR BKN023 BKN031 OVC055 04/04 A2985 RMK AO2 T00390039
KAOO 170053Z AUTO 25003KT 2 1/2SM BR SCT023 BKN035 OVC100 04/03 A2985 RMK AO2 RAE46 SLP119 P0001 T00390033
KAOO 170041Z AUTO 00000KT 2 1/2SM -RA BR FEW025 BKN050 OVC075 04/04 A2984 RMK AO2 P0001 T00390039
KAOO 170029Z AUTO 22003KT 3SM -RA BR FEW007 BKN055 OVC075 04/04 A2985 RMK AO2 P0001 T00390039
KAOO 170020Z AUTO 00000KT 2 1/2SM -RA BR SCT007 OVC050 04/04 A2984 RMK AO2 P0001 T00390039
KAOO 162353Z AUTO 00000KT 2 1/2SM -RA BR OVC006 04/04 A2985 RMK AO2 RAB2254 CIG 004V009 SLP119 P0003 60005 T00440039 10044 20039 51013
KAOO 162253Z AUTO 17004KT 4SM BR OVC008 04/04 A2984 RMK AO2 RAE24 CIG 004V011 SLP115 P0001 T00390039
KAOO 162153Z AUTO 22003KT 4SM -RA BR OVC006 04/04 A2983 RMK AO2 RAB31 SLP115 P0001 T00440039
KAOO 162053Z AUTO 16004KT 6SM BR OVC007 04/04 A2981 RMK AO2 SLP106 T00440039 55010
KAOO 161953Z AUTO 18005KT 7SM OVC007 04/04 A2980 RMK AO2 SLP103 T00440039
KAOO 161853Z AUTO 16006KT 7SM OVC007 04/03 A2982 RMK AO2 CIG 006V011 SLP109 T00390033
KAOO 161753Z AUTO 16005KT 6SM BR OVC007 04/03 A2984 RMK AO2 RAB1655E12 CIG 006V011 SLP116 P0001 60023 T00390033 10039 20006 58016
KAOO 161653Z AUTO 20006KT 6SM BR OVC007 03/03 A2985 RMK AO2 RAE31 CIG 005V010 SLP121 P0002 T00330028
KAOO 161637Z AUTO 00000KT 7SM BKN008 BKN065 OVC085 03/03 A2985 RMK AO2 RAE31 P0002 T00330033
KAOO 161625Z AUTO 00000KT 6SM -RA BR SCT008 BKN065 OVC085 03/03 A2984 RMK AO2 P0002 T00330028
KAOO 161604Z AUTO 09005KT 3SM -RA BR FEW005 BKN009 OVC046 03/03 A2987 RMK AO2 PRESFR P0002 T00280028
KAOO 161558Z AUTO 11006KT 2SM RA BR FEW007 BKN011 OVC044 03/03 A2989 RMK AO2 PRESFR P0002 T00280028
KAOO 161553Z AUTO VRB03KT 1 3/4SM RA BR BKN009 BKN021 OVC044 03/03 A2990 RMK AO2 SLP136 P0010 T00280028
KAOO 161550Z AUTO 10004KT 1 3/4SM RA BR BKN009 BKN021 OVC044 03/03 A2990 RMK AO2 PRESFR P0009
KAOO 161506Z AUTO 00000KT 1SM -RA BR FEW005 OVC055 02/02 A2990 RMK AO2 P0002 T00220022
KAOO 161453Z AUTO 02004KT 1SM +RA BR FEW048 OVC060 02/02 A2989 RMK AO2 UPE1359RAB06 SLP133 P0010 60010 T00220017 58008
KAOO 161440Z AUTO 00000KT 1 3/4SM RA BR SCT008 OVC060 03/02 A2991 RMK AO2 UPE1359RAB06 P0006 T00280022
KAOO 161416Z AUTO 19006KT 1 1/4SM -RA BR OVC008 01/01 A2994 RMK AO2 UPE1359RAB06 PRESRR P0000 T00110011
KAOO 161405Z AUTO 00000KT 2SM BR OVC009 03/02 A2991 RMK AO2 UPE1359 P0000 T00280022
KAOO 161353Z AUTO VRB03KT 2 1/2SM UP BR BKN010 OVC055 02/02 A2991 RMK AO2 RAB38E53UPB53 SLP142 P0000 T00220022
KAOO 161344Z AUTO 10005KT 2SM -RA BR BKN010 OVC055 02/02 A2990 RMK AO2 RAB38 P0000 T00220022
KAOO 161330Z AUTO 11004KT 1 1/2SM BR SCT006 BKN012 OVC050 02/02 A2991 RMK AO2 T00220017
KAOO 161253Z AUTO 11003KT 2SM BR BKN006 OVC070 01/01 A2991 RMK AO2 SLP142 T00110011
KAOO 161245Z AUTO 09003KT 2SM BR BKN006 OVC065 01/01 A2992 RMK AO2 T00110011
KAOO 161224Z AUTO 11004KT 3SM BR OVC006 01/01 A2992 RMK AO2 T00110011
KAOO 161204Z AUTO 00000KT 2SM BR OVC006 01/01 A2992 RMK AO2 T00060006
KAOO 161153Z AUTO 00000KT 1 1/4SM BR OVC007 01/01 A2991 RMK AO2 SLP142 I6000 T00110011 10022 21017 55004
KAOO 161149Z AUTO 05003KT 1SM BR OVC007 01/01 A2991 RMK AO2
KAOO 161139Z AUTO 06003KT 3/4SM BR BKN008 OVC100 01/01 A2990 RMK AO2 T00060006
KAOO 161131Z AUTO 06004KT 1/2SM FG SCT008 BKN085 OVC100 01/01 A2991 RMK AO2 T00060006
KAOO 161121Z AUTO 06004KT 1 3/4SM BR FEW009 SCT085 OVC110 01/01 A2992 RMK AO2 T00060006
KAOO 161111Z AUTO 00000KT 2 1/2SM BR FEW060 BKN110 01/01 A2992 RMK AO2 T00060006
KAOO 161053Z AUTO 10004KT 4SM BR OVC110 01/00 A2992 RMK AO2 SLP145 I1000 T00060000
KAOO 161049Z AUTO 11004KT 3SM BR OVC110 01/01 A2993 RMK AO2 I1000
KAOO 161033Z AUTO 09003KT 1SM BR FEW009 OVC110 00/00 A2993 RMK AO2 I1000 T00000000
KAOO 161027Z AUTO 00000KT 1/2SM FZFG SCT008 BKN110 M01/M01 A2993 RMK AO2 I1000 T10111011
KAOO 161022Z AUTO 00000KT 3/4SM BR BKN008 BKN100 M01/M01 A2992 RMK AO2 I1000 T10061011
KAOO 160953Z AUTO 00000KT 1/4SM FZFG VV007 M01/M01 A2993 RMK AO2 SLP146 T10111011
KAOO 160901Z AUTO 00000KT 1/2SM FZFG VV009 M01/M01 A2993 RMK AO2 T10061006
KAOO 160853Z AUTO 00000KT 3/4SM BR VV008 M01/M01 A2993 RMK AO2 SLP148 I1000 I3000 T10061006 58008
KAOO 160850Z AUTO 00000KT 3/4SM BR VV008 00/00 A2993 RMK AO2 I1000
KAOO 160846Z AUTO 00000KT 1 1/4SM BR FEW008 00/00 A2994 RMK AO2 I1000 T00000000
KAOO 160823Z AUTO 00000KT 2SM BR FEW010 00/00 A2994 RMK AO2 I1000 T00000000
KAOO 160820Z AUTO 12003KT 1SM BR VV010 00/M01 A2994 RMK AO2 I1000 T00001006
KAOO 160816Z AUTO 11005KT 1/2SM FZFG VV010 M01/M02 A2994 RMK AO2 T10111017
KAOO 160806Z AUTO 00000KT 1/2SM FZFG VV009 M01/M01 A2995 RMK AO2 T10061006
KAOO 160801Z AUTO 00000KT 1 1/2SM BR FEW009 M01/M01 A2996 RMK AO2 T10061006